createdAt,value
2018-12-27T00:06:14.994Z,28.00
2018-12-27T00:08:57.693Z,24.57
2018-12-27T00:11:47.167Z,24.05
2018-12-27T00:14:29.562Z,29.02
2018-12-27T00:17:19.189Z,29.85
2018-12-27T00:20:12.489Z,25.02
2018-12-27T00:26:04.407Z,15.95
2018-12-27T00:28:47.217Z,26.25
2018-12-27T00:34:58.121Z,20.08
2018-12-27T00:37:40.267Z,32.73
2018-12-27T00:40:30.148Z,28.00
2018-12-27T00:43:23.657Z,21.17
2018-12-27T00:46:13.403Z,23.05
2018-12-27T00:48:56.063Z,22.90
2018-12-27T00:51:46.036Z,25.17
2018-12-27T00:54:28.828Z,23.00
2018-12-27T00:57:11.165Z,22.13
2018-12-27T01:03:21.825Z,30.50
2018-12-27T01:06:04.062Z,22.80
2018-12-27T01:08:53.825Z,25.85
2018-12-27T01:11:36.136Z,29.48
2018-12-27T01:23:29.999Z,29.07
2018-12-27T01:26:12.152Z,31.52
2018-12-27T01:29:02.132Z,11.83
2018-12-27T01:31:50.606Z,21.27
2018-12-27T01:34:29.179Z,35.35
2018-12-27T01:37:19.166Z,21.93
2018-12-27T01:40:01.639Z,29.92
2018-12-27T01:42:51.469Z,27.70
2018-12-27T01:45:34.484Z,30.25
2018-12-27T01:48:24.327Z,25.52
2018-12-27T01:51:06.983Z,29.10
2018-12-27T01:53:56.894Z,24.70
2018-12-27T01:56:39.643Z,20.80
2018-12-27T02:02:29.207Z,25.77
2018-12-27T02:05:19.100Z,31.45
2018-12-27T02:08:02.122Z,18.70
2018-12-27T02:16:56.725Z,25.97
2018-12-27T02:19:39.923Z,21.65
2018-12-27T02:22:29.661Z,31.68
2018-12-27T02:25:31.911Z,24.72
2018-12-27T02:28:21.741Z,21.42
2018-12-27T02:31:02.378Z,21.95
2018-12-27T02:33:52.176Z,26.37
2018-12-27T02:36:35.012Z,25.62
2018-12-27T02:39:24.827Z,26.07
2018-12-27T02:42:07.722Z,23.87
2018-12-27T02:44:57.611Z,23.12
2018-12-27T02:47:39.936Z,22.30
2018-12-27T02:53:30.313Z,19.20
2018-12-27T02:56:13.019Z,21.85
2018-12-27T02:58:55.437Z,15.18
2018-12-27T03:01:37.920Z,20.27
2018-12-27T03:04:27.799Z,27.70
2018-12-27T03:07:17.072Z,23.07
2018-12-27T03:10:07.049Z,27.45
2018-12-27T03:12:55.932Z,18.40
2018-12-27T03:15:45.820Z,24.82
2018-12-27T03:18:28.015Z,19.87
2018-12-27T03:21:17.774Z,22.87
2018-12-27T03:24:00.699Z,22.00
2018-12-27T03:26:50.702Z,19.55
2018-12-27T03:29:33.624Z,29.75
2018-12-27T03:32:23.488Z,32.33
2018-12-27T03:35:06.359Z,15.28
2018-12-27T03:37:56.179Z,21.90
2018-12-27T03:40:39.356Z,17.82
2018-12-27T03:43:29.113Z,22.22
2018-12-27T03:46:11.454Z,21.73
2018-12-27T03:49:01.445Z,24.87
2018-12-27T03:51:44.187Z,25.08
2018-12-27T03:54:33.957Z,20.00
2018-12-27T03:57:16.536Z,22.90
2018-12-27T04:00:06.575Z,22.55
2018-12-27T04:02:48.947Z,26.37
2018-12-27T04:08:39.889Z,28.67
2018-12-27T04:11:22.874Z,21.97
2018-12-27T04:14:12.654Z,23.12
2018-12-27T04:16:54.948Z,22.80
2018-12-27T04:22:45.993Z,25.95
2018-12-27T04:25:28.553Z,22.45
2018-12-27T04:28:18.210Z,23.02
2018-12-27T04:31:00.618Z,22.15
2018-12-27T04:33:50.309Z,27.70
2018-12-27T04:36:33.081Z,16.93
2018-12-27T04:39:22.665Z,31.70
2018-12-27T04:42:03.464Z,28.23
2018-12-27T04:44:52.968Z,22.37
2018-12-27T04:47:35.723Z,21.80
2018-12-27T04:50:25.350Z,30.02
2018-12-27T04:53:07.881Z,18.95
2018-12-27T04:58:57.731Z,24.82
2018-12-27T05:01:45.691Z,20.95
2018-12-27T05:04:35.258Z,21.57
2018-12-27T05:07:17.598Z,21.40
2018-12-27T05:10:07.277Z,26.02
2018-12-27T05:12:57.549Z,22.60
2018-12-27T05:15:39.813Z,23.60
2018-12-27T05:18:29.550Z,27.37
2018-12-27T05:21:11.994Z,29.27
2018-12-27T05:24:01.810Z,36.25
2018-12-27T05:26:44.209Z,24.98
2018-12-27T05:29:45.960Z,22.05
2018-12-27T05:32:27.752Z,26.68
2018-12-27T05:35:17.412Z,21.23
2018-12-27T05:37:59.697Z,26.50
2018-12-27T05:40:49.241Z,29.77
2018-12-27T05:43:29.674Z,29.57
2018-12-27T05:46:19.316Z,28.60
2018-12-27T05:49:02.310Z,27.35
2018-12-27T05:54:51.323Z,26.97
2018-12-27T05:57:34.081Z,20.72
2018-12-27T06:00:23.661Z,25.17
2018-12-27T06:03:04.223Z,22.55
2018-12-27T06:05:53.758Z,25.77
2018-12-27T06:08:35.728Z,35.85
2018-12-27T06:14:26.729Z,30.05
2018-12-27T06:17:16.285Z,26.82
2018-12-27T06:19:58.236Z,26.07
2018-12-27T06:25:49.914Z,21.40
2018-12-27T06:28:39.419Z,18.98
2018-12-27T06:31:22.165Z,21.07
2018-12-27T06:34:24.647Z,22.77
2018-12-27T06:37:05.991Z,23.42
2018-12-27T06:39:55.564Z,29.40
2018-12-27T06:42:38.434Z,21.75
2018-12-27T06:48:37.429Z,24.95
2018-12-27T06:51:26.923Z,24.98
2018-12-27T06:54:07.369Z,26.27
2018-12-27T06:56:57.006Z,27.80
2018-12-27T06:59:39.463Z,18.15
2018-12-27T07:02:28.993Z,30.20
2018-12-27T07:05:11.211Z,19.75
2018-12-27T07:08:00.768Z,27.20
2018-12-27T07:10:43.359Z,27.65
2018-12-27T07:13:33.020Z,21.75
2018-12-27T07:16:15.793Z,27.05
2018-12-27T07:19:05.316Z,17.92
2018-12-27T07:21:47.620Z,26.68
2018-12-27T07:24:49.784Z,28.23
2018-12-27T07:27:31.291Z,25.37
2018-12-27T07:33:21.635Z,32.65
2018-12-27T07:36:03.879Z,24.87
2018-12-27T07:38:53.531Z,28.57
2018-12-27T07:41:36.554Z,28.10
2018-12-27T07:44:26.156Z,25.20
2018-12-27T07:47:08.409Z,26.02
2018-12-27T07:49:57.897Z,33.65
2018-12-27T07:52:40.091Z,19.42
2018-12-27T07:55:29.640Z,28.07
2018-12-27T07:58:12.145Z,32.93
2018-12-27T08:01:01.884Z,36.77
2018-12-27T08:03:44.401Z,30.48
2018-12-27T08:06:27.081Z,30.17
2018-12-27T08:09:09.144Z,30.68
2018-12-27T08:11:58.677Z,18.67
2018-12-27T08:14:41.334Z,36.30
2018-12-27T08:20:31.995Z,32.67
2018-12-27T08:23:21.668Z,22.70
2018-12-27T08:26:02.405Z,35.20
2018-12-27T08:28:51.918Z,37.85
2018-12-27T08:31:34.831Z,35.68
2018-12-27T08:34:24.392Z,30.62
2018-12-27T08:37:06.713Z,48.28
2018-12-27T08:42:58.157Z,25.12
2018-12-27T08:45:47.739Z,46.85
2018-12-27T08:48:30.807Z,47.38
2018-12-27T08:51:20.540Z,41.18
2018-12-27T08:54:23.301Z,28.52
2018-12-27T08:57:12.854Z,27.93
2018-12-27T08:59:55.220Z,42.43
2018-12-27T09:05:38.743Z,26.55
2018-12-27T09:08:28.263Z,37.80
2018-12-27T09:11:10.875Z,37.65
2018-12-27T09:14:13.029Z,32.80
2018-12-27T09:16:54.704Z,28.27
2018-12-27T09:19:44.192Z,36.60
2018-12-27T09:22:27.005Z,34.63
2018-12-27T09:31:18.573Z,35.92
2018-12-27T09:34:01.384Z,45.55
2018-12-27T09:36:50.981Z,41.60
2018-12-27T09:39:33.715Z,42.62
2018-12-27T09:42:23.500Z,35.63
2018-12-27T09:45:07.438Z,35.60
2018-12-27T09:47:57.270Z,33.58
2018-12-27T09:50:40.033Z,37.25
2018-12-27T09:53:29.869Z,35.83
2018-12-27T09:56:31.886Z,29.90
2018-12-27T09:59:21.498Z,44.05
2018-12-27T10:02:03.702Z,41.05
2018-12-27T10:04:53.280Z,38.60
2018-12-27T10:07:36.052Z,39.63
2018-12-27T10:10:25.599Z,45.05
2018-12-27T10:13:07.838Z,33.38
2018-12-27T10:15:57.354Z,46.15
2018-12-27T10:18:39.366Z,31.48
2018-12-27T10:24:29.710Z,49.08
2018-12-27T10:27:11.995Z,35.38
2018-12-27T10:33:03.139Z,34.80
2018-12-27T10:35:45.291Z,35.60
2018-12-27T10:38:34.826Z,42.33
2018-12-27T10:41:16.893Z,40.48
2018-12-27T10:50:27.063Z,36.68
2018-12-27T10:53:07.745Z,34.98
2018-12-27T10:55:57.247Z,35.55
2018-12-27T10:58:39.219Z,43.65
2018-12-27T11:01:21.522Z,34.48
2018-12-27T11:04:03.777Z,33.75
2018-12-27T11:07:04.894Z,35.95
2018-12-27T11:09:54.466Z,39.38
2018-12-27T11:12:37.282Z,42.33
2018-12-27T11:15:26.804Z,38.30
2018-12-27T11:18:09.473Z,33.98
2018-12-27T11:20:59.054Z,34.60
2018-12-27T11:23:42.154Z,42.90
2018-12-27T11:26:31.816Z,34.40
2018-12-27T11:29:14.422Z,25.52
2018-12-27T11:32:03.869Z,42.00
2018-12-27T11:34:45.943Z,30.95
2018-12-27T11:37:35.545Z,31.35
2018-12-27T11:40:18.541Z,39.88
2018-12-27T11:43:09.649Z,33.18
2018-12-27T11:46:01.826Z,34.88
2018-12-27T11:48:51.405Z,41.33
2018-12-27T11:51:34.182Z,35.83
2018-12-27T11:57:25.167Z,33.35
2018-12-27T12:00:09.537Z,35.35
2018-12-27T12:06:03.349Z,29.92
2018-12-27T12:08:55.575Z,37.45
2018-12-27T12:11:45.291Z,31.45
2018-12-27T12:14:27.869Z,35.23
2018-12-27T12:17:17.345Z,40.38
2018-12-27T12:20:00.275Z,29.82
2018-12-27T12:22:50.019Z,34.20
2018-12-27T12:25:32.868Z,35.65
2018-12-27T12:28:22.581Z,39.50
2018-12-27T12:31:05.458Z,36.45
2018-12-27T12:33:55.255Z,32.50
2018-12-27T12:36:38.129Z,39.67
2018-12-27T12:39:27.639Z,42.75
2018-12-27T12:42:09.782Z,29.42
2018-12-27T12:44:52.261Z,41.63
2018-12-27T12:47:34.496Z,35.33
2018-12-27T12:50:23.983Z,33.18
2018-12-27T12:53:06.824Z,31.15
2018-12-27T12:55:56.445Z,33.63
2018-12-27T12:58:39.048Z,39.42
2018-12-27T13:01:28.553Z,40.15
2018-12-27T13:04:11.329Z,38.67
2018-12-27T13:07:00.935Z,34.90
2018-12-27T13:09:43.546Z,39.38
2018-12-27T13:12:33.099Z,35.68
2018-12-27T13:15:15.273Z,40.50
2018-12-27T13:18:04.797Z,41.23
2018-12-27T13:20:46.797Z,39.20
2018-12-27T13:23:29.529Z,34.53
2018-12-27T13:26:11.955Z,37.10
2018-12-27T13:32:03.593Z,38.08
2018-12-27T13:34:45.544Z,42.58
2018-12-27T13:37:35.112Z,41.60
2018-12-27T13:40:17.787Z,40.12
2018-12-27T13:43:07.326Z,40.12
2018-12-27T13:45:49.476Z,34.53
2018-12-27T13:48:39.074Z,40.52
2018-12-27T13:51:21.208Z,41.58
2018-12-27T13:54:10.715Z,34.65
2018-12-27T13:56:51.124Z,37.70
2018-12-27T13:59:40.649Z,35.25
2018-12-27T14:02:22.742Z,32.15
2018-12-27T14:05:12.298Z,37.30
2018-12-27T14:07:54.963Z,37.38
2018-12-27T14:10:44.471Z,34.20
2018-12-27T14:13:24.813Z,36.15
2018-12-27T14:16:14.336Z,33.10
2018-12-27T14:18:54.837Z,35.80
2018-12-27T14:21:44.378Z,49.23
2018-12-27T14:24:26.854Z,34.63
2018-12-27T14:27:16.379Z,47.85
2018-12-27T14:29:58.667Z,32.15
2018-12-27T14:35:48.861Z,32.30
2018-12-27T14:38:31.698Z,35.88
2018-12-27T14:41:21.249Z,38.55
2018-12-27T14:44:03.616Z,28.70
2018-12-27T14:46:53.123Z,26.93
2018-12-27T14:49:35.743Z,35.15
2018-12-27T14:52:25.252Z,36.23
2018-12-27T14:55:07.276Z,36.93
2018-12-27T14:57:56.813Z,49.48
2018-12-27T15:00:37.438Z,32.03
2018-12-27T15:03:26.944Z,34.58
2018-12-27T15:06:09.187Z,32.53
2018-12-27T15:08:58.707Z,39.65
2018-12-27T15:11:41.448Z,35.55
2018-12-27T15:14:31.046Z,26.97
2018-12-27T15:17:13.326Z,31.17
2018-12-27T15:20:14.104Z,29.20
2018-12-27T15:23:03.638Z,32.05
2018-12-27T15:25:45.544Z,68.45
2018-12-27T15:28:35.063Z,31.02
2018-12-27T15:31:17.052Z,35.80
2018-12-27T15:34:06.642Z,36.25
2018-12-27T15:36:54.265Z,32.40
2018-12-27T15:39:32.677Z,39.55
2018-12-27T15:42:13.129Z,32.38
2018-12-27T15:45:02.702Z,33.25
2018-12-27T15:47:45.316Z,28.87
2018-12-27T15:50:34.873Z,35.90
2018-12-27T15:53:28.266Z,32.23
2018-12-27T15:56:17.855Z,38.13
2018-12-27T15:58:59.881Z,36.33
2018-12-27T16:01:49.447Z,33.05
2018-12-27T16:04:32.185Z,35.75
2018-12-27T16:07:21.717Z,24.10
2018-12-27T16:10:04.594Z,25.08
2018-12-27T16:15:55.646Z,28.35
2018-12-27T16:18:37.696Z,35.40
2018-12-27T16:21:27.210Z,39.75
2018-12-27T16:24:07.696Z,35.45
2018-12-27T16:26:57.249Z,29.82
2018-12-27T16:29:39.491Z,31.12
2018-12-27T16:32:29.052Z,30.97
2018-12-27T16:35:11.586Z,32.83
2018-12-27T16:38:01.134Z,28.60
2018-12-27T16:40:43.053Z,28.83
2018-12-27T16:43:32.587Z,35.55
2018-12-27T16:46:14.583Z,32.53
2018-12-27T16:49:04.099Z,30.60
2018-12-27T16:51:46.724Z,34.70
2018-12-27T16:54:36.257Z,30.25
2018-12-27T16:57:19.839Z,29.52
2018-12-27T17:03:18.691Z,27.40
2018-12-27T17:06:00.815Z,25.52
2018-12-27T17:08:50.489Z,37.28
2018-12-27T17:11:32.840Z,30.17
2018-12-27T17:14:22.502Z,28.87
2018-12-27T17:17:04.427Z,35.73
2018-12-27T17:19:53.946Z,36.85
2018-12-27T17:22:36.514Z,34.65
2018-12-27T17:28:27.657Z,29.23
2018-12-27T17:31:09.655Z,35.75
2018-12-27T17:33:59.232Z,36.73
2018-12-27T17:36:48.392Z,35.45
2018-12-27T17:39:37.878Z,37.15
2018-12-27T17:42:20.031Z,26.35
2018-12-27T17:45:09.703Z,39.35
2018-12-27T17:47:50.170Z,31.97
2018-12-27T17:50:39.657Z,29.42
2018-12-27T17:53:22.446Z,38.90
2018-12-27T17:56:11.977Z,41.80
2018-12-27T17:58:52.535Z,41.98
2018-12-27T18:01:42.058Z,31.05
2018-12-27T18:04:24.520Z,50.00
2018-12-27T18:07:14.144Z,29.02
2018-12-27T18:09:57.124Z,30.97
2018-12-27T18:15:48.283Z,45.78
2018-12-27T18:18:30.336Z,38.90
2018-12-27T18:24:21.622Z,37.85
2018-12-27T18:27:03.865Z,31.68
2018-12-27T18:29:53.345Z,29.90
2018-12-27T18:32:35.610Z,29.25
2018-12-27T18:35:25.105Z,33.53
2018-12-27T18:38:07.970Z,38.45
2018-12-27T18:40:57.499Z,38.10
2018-12-27T18:43:40.141Z,36.75
2018-12-27T18:46:29.627Z,35.30
2018-12-27T18:49:10.111Z,29.12
2018-12-27T18:51:59.605Z,30.62
2018-12-27T18:54:41.740Z,30.17
2018-12-27T18:57:31.215Z,28.70
2018-12-27T19:00:11.809Z,26.95
2018-12-27T19:02:54.678Z,32.98
2018-12-27T19:05:37.392Z,35.03
2018-12-27T19:08:26.866Z,31.65
2018-12-27T19:11:28.417Z,38.05
2018-12-27T19:14:17.931Z,22.45
2018-12-27T19:17:00.690Z,26.75
2018-12-27T19:19:50.254Z,35.30
2018-12-27T19:22:34.473Z,29.90
2018-12-27T19:25:24.006Z,32.23
2018-12-27T19:28:06.527Z,38.35
2018-12-27T19:30:56.042Z,29.05
2018-12-27T19:33:38.906Z,35.63
2018-12-27T19:36:28.418Z,22.65
2018-12-27T19:39:10.595Z,28.87
2018-12-27T19:42:00.123Z,34.60
2018-12-27T19:44:42.108Z,30.23
2018-12-27T19:47:31.628Z,33.92
2018-12-27T19:50:14.080Z,26.27
2018-12-27T19:53:03.589Z,25.05
2018-12-27T19:55:46.306Z,37.20
2018-12-27T19:58:35.798Z,27.05
2018-12-27T20:01:18.402Z,31.70
2018-12-27T20:04:01.194Z,31.97
2018-12-27T20:06:43.222Z,34.23
2018-12-27T20:09:32.665Z,35.88
2018-12-27T20:12:14.727Z,34.03
2018-12-27T20:21:28.099Z,36.93
2018-12-27T20:24:10.858Z,34.78
2018-12-27T20:27:00.403Z,40.08
2018-12-27T20:29:42.324Z,41.48
2018-12-27T20:32:31.857Z,35.60
2018-12-27T20:35:13.943Z,30.68
2018-12-27T20:38:06.879Z,31.77
2018-12-27T20:40:57.645Z,50.80
2018-12-27T20:43:47.207Z,43.87
2018-12-27T20:46:29.144Z,44.30
2018-12-27T20:49:18.678Z,38.95
2018-12-27T20:52:01.383Z,41.80
2018-12-27T20:54:50.896Z,35.05
2018-12-27T20:57:33.332Z,43.05
2018-12-27T21:00:22.877Z,40.67
2018-12-27T21:03:05.476Z,51.05
2018-12-27T21:05:54.968Z,47.65
2018-12-27T21:08:35.665Z,43.58
2018-12-27T21:11:25.154Z,44.70
2018-12-27T21:14:07.236Z,46.48
2018-12-27T21:16:56.732Z,40.60
2018-12-27T21:19:38.828Z,45.60
2018-12-27T21:22:28.322Z,47.53
2018-12-27T21:25:11.076Z,54.53
2018-12-27T21:27:41.233Z,65.22
2018-12-27T21:30:11.419Z,59.90
2018-12-27T21:32:41.583Z,49.83
2018-12-27T21:35:11.786Z,60.55
2018-12-27T21:37:42.017Z,49.38
2018-12-27T21:40:12.178Z,59.55
2018-12-27T21:42:42.340Z,53.73
2018-12-27T21:45:12.527Z,53.23
2018-12-27T21:47:42.714Z,62.17
2018-12-27T21:50:12.932Z,49.63
2018-12-27T21:52:43.110Z,55.98
2018-12-27T21:55:13.286Z,49.45
2018-12-27T21:57:43.560Z,57.95
2018-12-27T22:00:13.749Z,56.50
2018-12-27T22:02:43.963Z,51.10
2018-12-27T22:05:14.158Z,52.98
2018-12-27T22:07:44.322Z,62.30
2018-12-27T22:10:14.575Z,43.60
2018-12-27T22:12:44.745Z,57.55
2018-12-27T22:15:14.881Z,51.33
2018-12-27T22:17:45.047Z,53.58
2018-12-27T22:20:15.284Z,53.92
2018-12-27T22:22:45.436Z,56.75
2018-12-27T22:25:15.594Z,45.25
2018-12-27T22:27:45.762Z,63.98
2018-12-27T22:30:15.940Z,58.95
2018-12-27T22:32:46.083Z,47.53
2018-12-27T22:35:16.270Z,58.68
2018-12-27T22:37:46.415Z,54.58
2018-12-27T22:40:16.604Z,51.33
2018-12-27T22:42:46.752Z,59.53
2018-12-27T22:45:16.948Z,45.40
2018-12-27T22:47:47.118Z,52.93
2018-12-27T22:50:17.267Z,48.95
2018-12-27T22:52:47.618Z,66.72
2018-12-27T22:55:17.802Z,61.92
2018-12-27T22:57:47.965Z,54.23
2018-12-27T23:00:23.177Z,62.35
2018-12-27T23:02:53.417Z,57.15
2018-12-27T23:05:23.584Z,59.80
2018-12-27T23:07:53.722Z,60.28
2018-12-27T23:10:23.953Z,45.95
2018-12-27T23:12:54.194Z,50.03
2018-12-27T23:15:24.363Z,38.98
2018-12-27T23:17:56.068Z,61.40
2018-12-27T23:20:26.278Z,70.30
2018-12-27T23:22:56.485Z,68.67
2018-12-27T23:25:26.642Z,64.97
2018-12-27T23:27:56.875Z,46.80
2018-12-27T23:30:27.057Z,71.80
2018-12-27T23:32:57.273Z,60.08
2018-12-27T23:35:27.436Z,51.28
2018-12-27T23:37:57.698Z,75.45
2018-12-27T23:40:27.882Z,44.48
2018-12-27T23:42:58.080Z,50.00
2018-12-27T23:45:28.327Z,60.75
2018-12-27T23:47:58.508Z,40.67
2018-12-27T23:50:28.701Z,60.75
2018-12-27T23:52:58.846Z,47.80
2018-12-27T23:55:29.015Z,55.55
2018-12-27T23:57:59.155Z,55.38
